Terminal Aerodrome Forecast
Issued by NWS

Home | Current Version | Previous Version | Text Only | Print | Product List | Glossary On
Versions: 1 2 3 4 5 6 7 8 9 10 11 12 13 14 15 16 17 18 19 20 21
000
FTUS43 KDLH 301547 AAA
TAFBRD
TAF AMD
KBRD 301547Z 3016/3112 20008KT P6SM OVC009
      TEMPO 3016/3017 SCT011
     FM301700 20013KT P6SM BKN250
     FM310700 18008KT 3SM BR BKN004=

USA.gov is the U.S. government's official web portal to all federal, state and local government web resources and services.